createdAt,value
2023-02-24T00:00:56.678Z,1.53
2023-02-24T00:03:26.130Z,0.90
2023-02-24T00:05:55.610Z,0.73
2023-02-24T00:08:25.196Z,1.40
2023-02-24T00:10:57.676Z,0.83
2023-02-24T00:13:27.053Z,0.90
2023-02-24T00:16:03.874Z,0.83
2023-02-24T00:18:34.422Z,0.97
2023-02-24T00:21:10.894Z,0.93
2023-02-24T00:23:41.329Z,1.33
2023-02-24T00:26:14.720Z,0.83
2023-02-24T00:28:44.411Z,0.97
2023-02-24T00:31:16.069Z,0.87
2023-02-24T00:33:47.288Z,0.90
2023-02-24T00:36:23.778Z,1.20
2023-02-24T00:38:55.751Z,1.17
2023-02-24T00:41:29.738Z,0.70
2023-02-24T00:44:05.938Z,0.73
2023-02-24T00:46:38.057Z,0.93
2023-02-24T00:49:12.662Z,1.00
2023-02-24T00:51:44.410Z,1.27
2023-02-24T00:54:16.104Z,1.33
2023-02-24T00:56:50.463Z,1.20
2023-02-24T00:59:22.356Z,0.83
2023-02-24T01:01:51.969Z,1.23
2023-02-24T01:04:21.947Z,1.70
2023-02-24T01:07:00.441Z,1.43
2023-02-24T01:09:31.515Z,2.00
2023-02-24T01:12:16.071Z,1.43
2023-02-24T01:14:47.717Z,1.07
2023-02-24T01:17:18.369Z,1.20
2023-02-24T01:19:49.701Z,1.90
2023-02-24T01:22:21.132Z,1.10
2023-02-24T01:24:51.019Z,1.10
2023-02-24T01:27:23.005Z,1.20
2023-02-24T01:29:53.817Z,1.30
2023-02-24T01:32:25.487Z,1.20
2023-02-24T01:34:56.213Z,1.10
2023-02-24T01:37:25.877Z,1.93
2023-02-24T01:39:55.802Z,1.43
2023-02-24T01:42:27.959Z,1.37
2023-02-24T01:45:16.708Z,1.33
2023-02-24T01:47:47.343Z,1.63
2023-02-24T01:50:21.596Z,1.27
2023-02-24T01:52:56.196Z,1.60
2023-02-24T01:55:29.399Z,1.70
2023-02-24T01:58:04.745Z,1.40
2023-02-24T02:00:45.398Z,1.60
2023-02-24T02:03:24.672Z,1.10
2023-02-24T02:05:56.107Z,1.20
2023-02-24T02:08:26.401Z,1.10
2023-02-24T02:11:00.381Z,1.30
2023-02-24T02:13:35.983Z,1.10
2023-02-24T02:16:35.353Z,1.30
2023-02-24T02:19:18.755Z,1.67
2023-02-24T02:22:11.183Z,1.17
2023-02-24T02:24:48.477Z,1.77
2023-02-24T02:27:31.718Z,1.40
2023-02-24T02:30:34.014Z,1.00
2023-02-24T02:33:39.491Z,0.93
2023-02-24T02:36:16.666Z,0.87
2023-02-24T02:38:54.110Z,1.33
2023-02-24T02:41:28.550Z,1.23
2023-02-24T02:44:07.559Z,1.50
2023-02-24T02:46:42.055Z,1.60
2023-02-24T02:49:17.657Z,1.53
2023-02-24T02:51:51.832Z,1.47
2023-02-24T02:54:27.304Z,1.33
2023-02-24T02:57:01.803Z,1.13
2023-02-24T02:59:32.697Z,0.93
2023-02-24T03:02:11.822Z,1.03
2023-02-24T03:04:44.171Z,1.13
2023-02-24T03:07:17.842Z,1.10
2023-02-24T03:09:50.005Z,0.93
2023-02-24T03:12:22.127Z,0.77
2023-02-24T03:14:56.750Z,1.57
2023-02-24T03:17:28.250Z,1.00
2023-02-24T03:20:15.017Z,0.90
2023-02-24T03:22:51.791Z,1.07
2023-02-24T03:25:24.284Z,1.07
2023-02-24T03:27:56.844Z,1.33
2023-02-24T03:30:30.610Z,1.00
2023-02-24T03:33:05.641Z,0.80
2023-02-24T03:35:38.908Z,1.00
2023-02-24T03:38:10.959Z,3.13
2023-02-24T03:40:43.357Z,0.80
2023-02-24T03:43:16.961Z,1.50
2023-02-24T03:45:46.822Z,1.70
2023-02-24T03:48:17.363Z,1.17
2023-02-24T03:50:46.965Z,1.17
2023-02-24T03:53:32.247Z,1.33
2023-02-24T03:56:10.947Z,0.70
2023-02-24T03:58:47.210Z,1.30
2023-02-24T04:01:21.012Z,0.83
2023-02-24T04:03:58.935Z,1.43
2023-02-24T04:06:35.417Z,0.90
2023-02-24T04:09:12.391Z,0.93
2023-02-24T04:11:47.009Z,1.00
2023-02-24T04:14:25.102Z,0.90
2023-02-24T04:17:01.201Z,1.53
2023-02-24T04:19:33.820Z,0.63
2023-02-24T04:22:04.026Z,0.90
2023-02-24T04:24:37.029Z,1.40
2023-02-24T04:27:09.044Z,0.73
2023-02-24T04:29:47.137Z,0.87
2023-02-24T04:32:17.427Z,0.90
2023-02-24T04:34:47.000Z,0.80
2023-02-24T04:37:16.401Z,0.80
2023-02-24T04:39:48.724Z,1.30
2023-02-24T04:42:20.019Z,0.93
2023-02-24T04:44:49.730Z,0.83
2023-02-24T04:47:19.180Z,1.10
2023-02-24T04:49:48.643Z,1.20
2023-02-24T04:52:20.778Z,0.90
2023-02-24T04:54:52.786Z,1.20
2023-02-24T04:57:22.169Z,0.70
2023-02-24T04:59:53.890Z,0.90
2023-02-24T05:02:25.851Z,1.47
2023-02-24T05:04:55.373Z,0.63
2023-02-24T05:07:25.342Z,1.77
2023-02-24T05:09:58.355Z,1.10
2023-02-24T05:12:29.478Z,1.03
2023-02-24T05:15:01.362Z,1.13
2023-02-24T05:17:30.821Z,1.03
2023-02-24T05:20:12.720Z,1.13
2023-02-24T05:22:42.156Z,1.37
2023-02-24T05:25:14.612Z,0.97
2023-02-24T05:27:44.033Z,0.50
2023-02-24T05:30:15.022Z,0.73
2023-02-24T05:32:45.370Z,1.13
2023-02-24T05:35:14.792Z,0.70
2023-02-24T05:37:44.711Z,1.33
2023-02-24T05:40:19.927Z,0.83
2023-02-24T05:42:51.941Z,0.93
2023-02-24T05:45:21.313Z,0.95
2023-02-24T05:47:50.699Z,1.70
2023-02-24T05:50:26.338Z,1.00
2023-02-24T05:52:56.007Z,0.87
2023-02-24T05:55:27.995Z,0.90
2023-02-24T05:57:59.248Z,0.80
2023-02-24T06:00:28.685Z,0.77
2023-02-24T06:03:08.381Z,1.43
2023-02-24T06:05:39.814Z,1.83
2023-02-24T06:08:11.873Z,0.82
2023-02-24T06:10:46.753Z,1.20
2023-02-24T06:13:16.203Z,0.80
2023-02-24T06:15:50.592Z,1.30
2023-02-24T06:18:21.567Z,1.07
2023-02-24T06:20:51.399Z,1.00
2023-02-24T06:23:20.797Z,0.63
2023-02-24T06:25:53.299Z,1.05
2023-02-24T06:28:22.728Z,1.10
2023-02-24T06:30:52.156Z,1.40
2023-02-24T06:33:22.470Z,1.80
2023-02-24T06:35:53.404Z,1.52
2023-02-24T06:38:22.860Z,1.40
2023-02-24T06:40:57.591Z,1.67
2023-02-24T06:43:27.442Z,1.63
2023-02-24T06:45:56.908Z,1.00
2023-02-24T06:48:28.030Z,1.25
2023-02-24T06:50:57.841Z,1.30
2023-02-24T06:53:27.339Z,2.35
2023-02-24T06:56:03.104Z,2.53
2023-02-24T06:58:32.677Z,2.60
2023-02-24T07:01:04.651Z,2.53
2023-02-24T07:03:47.484Z,2.78
2023-02-24T07:06:24.073Z,1.52
2023-02-24T07:08:54.763Z,2.15
2023-02-24T07:11:27.570Z,2.15
2023-02-24T07:13:57.902Z,2.65
2023-02-24T07:16:29.339Z,2.65
2023-02-24T07:19:02.886Z,2.50
2023-02-24T07:21:39.568Z,2.00
2023-02-24T07:24:10.028Z,2.88
2023-02-24T07:26:43.847Z,2.00
2023-02-24T07:29:16.797Z,2.10
2023-02-24T07:31:46.460Z,1.15
2023-02-24T07:34:23.514Z,2.30
2023-02-24T07:36:54.670Z,2.03
2023-02-24T07:39:25.698Z,1.83
2023-02-24T07:41:59.369Z,2.58
2023-02-24T07:44:29.443Z,1.13
2023-02-24T07:46:59.529Z,1.40
2023-02-24T07:49:30.456Z,1.98
2023-02-24T07:52:00.582Z,1.20
2023-02-24T07:54:31.066Z,1.10
2023-02-24T07:57:03.294Z,1.65
2023-02-24T07:59:35.245Z,1.80
2023-02-24T08:02:07.904Z,1.55
2023-02-24T08:04:41.134Z,2.08
2023-02-24T08:07:14.472Z,1.48
2023-02-24T08:10:09.925Z,2.20
2023-02-24T08:12:43.166Z,1.90
2023-02-24T08:15:24.232Z,1.40
2023-02-24T08:17:59.577Z,1.55
2023-02-24T08:20:30.121Z,1.67
2023-02-24T08:22:59.674Z,1.10
2023-02-24T08:25:36.076Z,1.77
2023-02-24T08:28:11.761Z,1.75
2023-02-24T08:30:45.675Z,1.52
2023-02-24T08:33:18.546Z,1.83
2023-02-24T08:35:48.037Z,1.70
2023-02-24T08:38:20.413Z,1.52
2023-02-24T08:40:58.603Z,2.40
2023-02-24T08:43:35.466Z,1.70
2023-02-24T08:46:13.226Z,1.30
2023-02-24T08:48:46.479Z,1.10
2023-02-24T08:51:23.141Z,1.50
2023-02-24T08:53:54.561Z,1.15
2023-02-24T08:56:28.999Z,1.25
2023-02-24T08:59:05.695Z,2.13
2023-02-24T09:01:37.425Z,2.08
2023-02-24T09:04:09.798Z,1.55
2023-02-24T09:06:44.085Z,1.92
2023-02-24T09:09:21.324Z,1.27
2023-02-24T09:11:56.334Z,2.10
2023-02-24T09:14:30.328Z,2.45
2023-02-24T09:17:11.380Z,2.53
2023-02-24T09:19:57.501Z,3.58
2023-02-24T09:22:41.016Z,3.88
2023-02-24T09:25:24.114Z,2.70
2023-02-24T09:27:56.076Z,4.40
2023-02-24T09:30:51.204Z,5.53
2023-02-24T09:33:23.198Z,6.05
2023-02-24T09:36:03.172Z,3.85
2023-02-24T09:38:58.002Z,4.18
2023-02-24T09:41:45.328Z,5.57
2023-02-24T09:44:18.828Z,4.95
2023-02-24T09:46:56.447Z,3.83
2023-02-24T09:49:39.980Z,4.53
2023-02-24T09:52:17.181Z,3.58
2023-02-24T09:55:18.538Z,3.63
2023-02-24T09:58:27.047Z,3.30
2023-02-24T10:01:21.075Z,5.90
2023-02-24T10:04:14.852Z,3.53
2023-02-24T10:06:50.939Z,4.95
2023-02-24T10:09:26.701Z,8.80
2023-02-24T10:12:04.721Z,5.95
2023-02-24T10:14:44.400Z,4.13
2023-02-24T10:17:30.766Z,1.55
2023-02-24T10:20:14.036Z,3.00
2023-02-24T10:22:50.790Z,2.47
2023-02-24T10:25:36.432Z,4.03
2023-02-24T10:28:13.120Z,2.85
2023-02-24T10:30:50.078Z,3.88
2023-02-24T10:33:25.401Z,4.10
2023-02-24T10:36:09.669Z,4.15
2023-02-24T10:38:40.885Z,3.37
2023-02-24T10:41:12.421Z,4.97
2023-02-24T10:43:48.732Z,2.25
2023-02-24T10:46:40.081Z,2.83
2023-02-24T10:49:16.852Z,3.37
2023-02-24T10:51:54.154Z,2.43
2023-02-24T10:54:39.338Z,1.90
2023-02-24T10:57:15.873Z,2.10
2023-02-24T10:59:58.571Z,2.47
2023-02-24T11:02:33.036Z,3.03
2023-02-24T11:05:27.348Z,2.50
2023-02-24T11:08:15.857Z,1.83
2023-02-24T11:11:07.006Z,2.40
2023-02-24T11:13:49.433Z,3.67
2023-02-24T11:16:31.570Z,9.80
2023-02-24T11:19:01.017Z,4.07
2023-02-24T11:21:31.871Z,5.20
2023-02-24T11:24:04.168Z,4.03
2023-02-24T11:26:38.439Z,3.40
2023-02-24T11:29:22.991Z,2.23
2023-02-24T11:32:02.540Z,2.37
2023-02-24T11:34:37.258Z,2.90
2023-02-24T11:37:16.639Z,2.80
2023-02-24T11:39:56.051Z,2.77
2023-02-24T11:42:28.805Z,2.63
2023-02-24T11:45:02.786Z,3.60
2023-02-24T11:47:38.010Z,2.00
2023-02-24T11:50:26.671Z,2.80
2023-02-24T11:52:57.515Z,1.77
2023-02-24T11:55:35.031Z,2.40
2023-02-24T11:58:06.447Z,2.83
2023-02-24T12:00:39.913Z,3.50
2023-02-24T12:03:18.313Z,3.03
2023-02-24T12:05:51.643Z,3.50
2023-02-24T12:08:26.830Z,5.07
2023-02-24T12:11:01.783Z,4.07
2023-02-24T12:13:38.337Z,2.23
2023-02-24T12:16:12.607Z,5.10
2023-02-24T12:18:45.324Z,5.03
2023-02-24T12:21:20.229Z,3.17
2023-02-24T12:23:51.020Z,4.13
2023-02-24T12:26:25.619Z,4.77
2023-02-24T12:29:10.891Z,2.50
2023-02-24T12:31:50.978Z,4.20
2023-02-24T12:34:30.113Z,4.33
2023-02-24T12:37:32.955Z,4.47
2023-02-24T12:40:11.832Z,5.70
2023-02-24T12:42:48.972Z,5.87
2023-02-24T12:45:21.627Z,5.50
2023-02-24T12:47:58.532Z,4.70
2023-02-24T12:50:37.449Z,5.20
2023-02-24T12:53:13.928Z,5.00
2023-02-24T12:55:47.554Z,3.90
2023-02-24T12:58:22.622Z,2.83
2023-02-24T13:00:59.648Z,4.73
2023-02-24T13:03:39.954Z,4.43
2023-02-24T13:06:14.427Z,3.40
2023-02-24T13:08:53.368Z,3.43
2023-02-24T13:11:31.015Z,4.50
2023-02-24T13:14:08.889Z,5.33
2023-02-24T13:16:38.917Z,4.77
2023-02-24T13:19:10.523Z,4.10
2023-02-24T13:21:40.060Z,4.60
2023-02-24T13:24:23.292Z,4.63
2023-02-24T13:26:52.784Z,5.10
2023-02-24T13:29:24.832Z,4.20
2023-02-24T13:31:56.329Z,8.03
2023-02-24T13:34:35.316Z,2.70
2023-02-24T13:37:04.694Z,11.63
2023-02-24T13:39:37.129Z,12.43
2023-02-24T13:42:09.357Z,2.37
2023-02-24T13:44:51.237Z,3.30
2023-02-24T13:47:45.609Z,5.50
2023-02-24T13:50:25.387Z,5.03
2023-02-24T13:53:06.561Z,4.90
2023-02-24T13:55:44.164Z,1.70
2023-02-24T13:58:40.767Z,7.63
2023-02-24T14:01:15.068Z,3.10
2023-02-24T14:03:46.312Z,14.50
2023-02-24T14:06:23.117Z,9.23
2023-02-24T14:08:55.570Z,2.00
2023-02-24T14:11:28.452Z,2.83
2023-02-24T14:13:59.369Z,6.00
2023-02-24T14:16:35.820Z,6.47
2023-02-24T14:19:06.492Z,2.63
2023-02-24T14:21:36.735Z,1.87
2023-02-24T14:24:12.417Z,3.93
2023-02-24T14:26:46.240Z,3.67
2023-02-24T14:29:17.254Z,1.70
2023-02-24T14:31:53.074Z,1.77
2023-02-24T14:34:25.047Z,1.63
2023-02-24T14:36:56.585Z,3.10
2023-02-24T14:39:27.349Z,3.17
2023-02-24T14:42:12.324Z,2.00
2023-02-24T14:44:44.651Z,4.50
2023-02-24T14:47:17.992Z,2.27
2023-02-24T14:49:55.976Z,6.00
2023-02-24T14:52:31.080Z,2.83
2023-02-24T14:55:02.716Z,4.10
2023-02-24T14:57:34.607Z,2.00
2023-02-24T15:00:12.169Z,1.80
2023-02-24T15:02:49.360Z,4.33
2023-02-24T15:05:19.559Z,4.27
2023-02-24T15:07:51.662Z,1.70
2023-02-24T15:10:24.490Z,2.80
2023-02-24T15:12:55.401Z,1.60
2023-02-24T15:15:27.143Z,1.63
2023-02-24T15:18:03.057Z,1.73
2023-02-24T15:20:35.634Z,1.10
2023-02-24T15:23:06.190Z,1.87
2023-02-24T15:25:45.301Z,1.47
2023-02-24T15:28:27.156Z,1.27
2023-02-24T15:31:02.554Z,1.00
2023-02-24T15:33:38.205Z,1.40
2023-02-24T15:36:21.886Z,1.00
2023-02-24T15:38:54.651Z,1.20
2023-02-24T15:41:24.377Z,1.53
2023-02-24T15:43:56.352Z,1.43
2023-02-24T15:46:31.044Z,1.90
2023-02-24T15:49:04.613Z,1.00
2023-02-24T15:51:37.568Z,1.93
2023-02-24T15:54:09.276Z,1.40
2023-02-24T15:56:39.081Z,1.87
2023-02-24T15:59:08.740Z,1.80
2023-02-24T16:01:38.491Z,2.10
2023-02-24T16:04:11.297Z,1.67
2023-02-24T16:06:42.393Z,1.70
2023-02-24T16:09:15.527Z,1.67
2023-02-24T16:11:50.144Z,2.00
2023-02-24T16:14:20.367Z,2.03
2023-02-24T16:16:49.913Z,1.67
2023-02-24T16:19:22.403Z,1.70
2023-02-24T16:21:51.840Z,1.00
2023-02-24T16:24:21.749Z,1.73
2023-02-24T16:26:51.758Z,1.40
2023-02-24T16:29:21.475Z,1.63
2023-02-24T16:31:51.327Z,2.57
2023-02-24T16:34:23.478Z,2.00
2023-02-24T16:36:53.394Z,1.60
2023-02-24T16:39:25.580Z,2.50
2023-02-24T16:41:55.005Z,1.70
2023-02-24T16:44:25.317Z,1.93
2023-02-24T16:46:54.722Z,1.70
2023-02-24T16:49:26.746Z,2.37
2023-02-24T16:51:56.124Z,1.70
2023-02-24T16:54:29.126Z,1.90
2023-02-24T16:56:59.071Z,3.03
2023-02-24T16:59:29.031Z,2.77
2023-02-24T17:01:59.569Z,2.17
2023-02-24T17:04:32.153Z,1.77
2023-02-24T17:07:01.639Z,3.80
2023-02-24T17:09:33.329Z,2.23
2023-02-24T17:12:02.972Z,2.83
2023-02-24T17:14:32.371Z,3.30
2023-02-24T17:17:01.941Z,2.47
2023-02-24T17:19:33.938Z,3.60
2023-02-24T17:22:03.762Z,2.90
2023-02-24T17:24:33.825Z,3.07
2023-02-24T17:27:04.411Z,4.13
2023-02-24T17:29:33.883Z,2.97
2023-02-24T17:32:03.957Z,3.03
2023-02-24T17:34:38.822Z,3.37
2023-02-24T17:37:08.456Z,4.00
2023-02-24T17:39:37.930Z,3.60
2023-02-24T17:42:07.455Z,4.17
2023-02-24T17:44:37.367Z,3.87
2023-02-24T17:47:08.993Z,3.20
2023-02-24T17:49:41.304Z,4.73
2023-02-24T17:52:11.351Z,3.27
2023-02-24T17:54:40.797Z,3.90
2023-02-24T17:57:11.022Z,4.17
2023-02-24T17:59:40.881Z,3.53
2023-02-24T18:02:10.306Z,4.87
2023-02-24T18:04:42.971Z,4.17
2023-02-24T18:07:13.448Z,4.43
2023-02-24T18:09:43.099Z,3.83
2023-02-24T18:12:12.546Z,3.90
2023-02-24T18:14:42.292Z,5.37
2023-02-24T18:17:11.673Z,5.77
2023-02-24T18:19:43.845Z,4.00
2023-02-24T18:22:13.275Z,3.90
2023-02-24T18:24:42.687Z,5.47
2023-02-24T18:27:12.187Z,4.70
2023-02-24T18:29:41.777Z,4.50
2023-02-24T18:32:11.686Z,5.47
2023-02-24T18:34:43.763Z,6.63
2023-02-24T18:37:13.478Z,5.73
2023-02-24T18:39:42.893Z,4.60
2023-02-24T18:42:12.383Z,4.17
2023-02-24T18:44:41.817Z,4.50
2023-02-24T18:47:11.772Z,4.30
2023-02-24T18:49:43.823Z,4.70
2023-02-24T18:52:14.379Z,5.03
2023-02-24T18:54:43.771Z,4.83
2023-02-24T18:57:13.749Z,5.43
2023-02-24T18:59:43.180Z,3.47
2023-02-24T19:02:13.223Z,5.13
2023-02-24T19:04:46.105Z,5.03
2023-02-24T19:07:15.884Z,4.60
2023-02-24T19:09:45.598Z,4.67
2023-02-24T19:12:15.050Z,4.73
2023-02-24T19:14:45.742Z,4.80
2023-02-24T19:17:18.425Z,3.97
2023-02-24T19:19:50.860Z,4.83
2023-02-24T19:22:20.978Z,4.23
2023-02-24T19:24:50.473Z,5.80
2023-02-24T19:27:21.272Z,4.77
2023-02-24T19:29:54.353Z,4.70
2023-02-24T19:32:24.054Z,4.37
2023-02-24T19:34:58.634Z,3.50
2023-02-24T19:37:28.239Z,4.57
2023-02-24T19:39:57.902Z,6.00
2023-02-24T19:42:27.566Z,4.70
2023-02-24T19:44:59.873Z,4.53
2023-02-24T19:47:29.310Z,6.00
2023-02-24T19:50:04.587Z,4.60
2023-02-24T19:52:34.066Z,3.90
2023-02-24T19:55:03.485Z,4.23
2023-02-24T19:57:32.887Z,4.27
2023-02-24T20:00:02.304Z,4.50
2023-02-24T20:02:31.966Z,3.80
2023-02-24T20:05:04.108Z,4.73
2023-02-24T20:07:33.494Z,3.70
2023-02-24T20:10:03.229Z,4.73
2023-02-24T20:12:32.619Z,9.83
2023-02-24T20:15:02.417Z,3.93
2023-02-24T20:17:32.416Z,6.83
2023-02-24T20:20:04.565Z,3.10
2023-02-24T20:22:34.340Z,2.80
2023-02-24T20:25:03.725Z,3.27
2023-02-24T20:27:34.035Z,3.43
2023-02-24T20:30:03.811Z,3.57
2023-02-24T20:32:33.359Z,2.10
2023-02-24T20:35:05.700Z,2.60
2023-02-24T20:37:35.660Z,3.27
2023-02-24T20:40:05.480Z,5.73
2023-02-24T20:42:34.856Z,3.00
2023-02-24T20:45:04.258Z,2.67
2023-02-24T20:47:33.751Z,4.40
2023-02-24T20:50:06.681Z,3.00
2023-02-24T20:52:37.672Z,3.30
2023-02-24T20:55:07.723Z,2.57
2023-02-24T20:57:37.282Z,3.13
2023-02-24T21:00:08.304Z,3.33
2023-02-24T21:02:40.355Z,2.30
2023-02-24T21:05:20.653Z,2.30
2023-02-24T21:07:52.000Z,3.60
2023-02-24T21:10:22.930Z,3.20
2023-02-24T21:12:52.643Z,2.63
2023-02-24T21:15:22.332Z,1.77
2023-02-24T21:17:51.969Z,2.60
2023-02-24T21:20:24.509Z,7.13
2023-02-24T21:22:54.693Z,2.07
2023-02-24T21:25:24.450Z,4.23
2023-02-24T21:27:54.137Z,1.90
2023-02-24T21:30:24.043Z,1.83
2023-02-24T21:32:53.731Z,1.80
2023-02-24T21:35:26.066Z,2.50
2023-02-24T21:37:55.592Z,7.53
2023-02-24T21:40:25.115Z,2.63
2023-02-24T21:42:54.841Z,6.00
2023-02-24T21:45:24.594Z,2.20
2023-02-24T21:47:54.367Z,1.00
2023-02-24T21:50:26.488Z,1.00
2023-02-24T21:52:56.197Z,1.90
2023-02-24T21:55:26.064Z,1.43
2023-02-24T21:57:56.369Z,2.30
2023-02-24T22:00:26.266Z,1.00
2023-02-24T22:02:58.199Z,1.03
2023-02-24T22:05:30.589Z,1.40
2023-02-24T22:08:00.178Z,3.03
2023-02-24T22:10:29.647Z,1.00
2023-02-24T22:13:01.580Z,1.17
2023-02-24T22:15:31.379Z,0.70
2023-02-24T22:18:01.053Z,0.70
2023-02-24T22:20:33.391Z,1.07
2023-02-24T22:23:02.898Z,1.33
2023-02-24T22:25:32.327Z,0.90
2023-02-24T22:28:02.163Z,1.50
2023-02-24T22:30:32.087Z,0.70
2023-02-24T22:33:01.809Z,0.70
2023-02-24T22:35:36.388Z,1.00
2023-02-24T22:40:08.276Z,0.63
2023-02-24T22:42:36.357Z,1.63
2023-02-24T22:45:04.562Z,0.97
2023-02-24T22:47:32.715Z,0.90
2023-02-24T22:50:00.826Z,1.00
2023-02-24T22:54:35.646Z,1.00
2023-02-24T22:57:03.691Z,1.03
2023-02-24T22:59:32.332Z,0.97
2023-02-24T23:02:00.873Z,1.20
2023-02-24T23:04:29.127Z,1.20
2023-02-24T23:06:57.273Z,1.30
2023-02-24T23:09:25.855Z,1.00
2023-02-24T23:11:57.901Z,1.63
2023-02-24T23:14:27.266Z,0.80
2023-02-24T23:16:58.810Z,1.43
2023-02-24T23:19:28.312Z,1.80
2023-02-24T23:21:57.721Z,1.37
2023-02-24T23:24:27.174Z,4.73
2023-02-24T23:27:00.092Z,1.13
2023-02-24T23:29:30.768Z,0.87
2023-02-24T23:32:00.693Z,1.40
2023-02-24T23:34:30.136Z,1.00
2023-02-24T23:36:59.583Z,1.17
2023-02-24T23:39:29.002Z,1.00
2023-02-24T23:42:01.086Z,1.10
2023-02-24T23:44:30.522Z,1.87
2023-02-24T23:47:01.244Z,1.40
2023-02-24T23:49:46.147Z,0.90
2023-02-24T23:52:17.127Z,0.80
2023-02-24T23:54:46.569Z,1.77
2023-02-24T23:57:18.612Z,2.93
2023-02-24T23:59:48.039Z,1.33
